createdAt,value
2022-11-20T00:00:16.775Z,97096.00
2022-11-20T00:03:21.866Z,97107.69
2022-11-20T00:06:26.096Z,97107.44
2022-11-20T00:09:29.978Z,97113.16
2022-11-20T00:12:33.840Z,97121.44
2022-11-20T00:15:40.358Z,97121.91
2022-11-20T00:18:45.043Z,97127.63
2022-11-20T00:21:56.818Z,97137.97
2022-11-20T00:25:01.805Z,97125.53
2022-11-20T00:28:05.822Z,97136.47
2022-11-20T00:31:09.724Z,97140.97
2022-11-20T00:34:13.626Z,97141.31
2022-11-20T00:37:17.876Z,97149.47
2022-11-20T00:40:22.056Z,97147.56
2022-11-20T00:43:25.872Z,97148.56
2022-11-20T00:46:29.642Z,97147.25
2022-11-20T00:49:33.795Z,97148.91
2022-11-20T00:52:37.986Z,97158.34
2022-11-20T00:55:43.399Z,97157.22
2022-11-20T00:58:47.834Z,97156.91
2022-11-20T01:01:53.051Z,97159.56
2022-11-20T01:04:59.664Z,97172.72
2022-11-20T01:08:03.454Z,97172.66
2022-11-20T01:11:07.450Z,97177.13
2022-11-20T01:14:11.485Z,97176.22
2022-11-20T01:17:15.313Z,97182.13
2022-11-20T01:20:19.102Z,97183.75
2022-11-20T01:23:23.368Z,97189.72
2022-11-20T01:26:27.123Z,97182.34
2022-11-20T01:29:31.106Z,97186.00
2022-11-20T01:32:34.867Z,97182.41
2022-11-20T01:35:38.979Z,97174.97
2022-11-20T01:38:43.115Z,97180.66
2022-11-20T01:41:47.361Z,97174.94
2022-11-20T01:44:51.502Z,97175.44
2022-11-20T01:47:56.184Z,97175.13
2022-11-20T01:51:00.150Z,97184.19
2022-11-20T01:54:04.320Z,97187.75
2022-11-20T01:57:08.416Z,97183.50
2022-11-20T02:00:12.093Z,97185.16
2022-11-20T02:03:16.377Z,97187.81
2022-11-20T02:06:20.209Z,97176.91
2022-11-20T02:09:24.513Z,97179.22
2022-11-20T02:12:28.654Z,97191.19
2022-11-20T02:15:32.736Z,97187.88
2022-11-20T02:18:36.889Z,97192.31
2022-11-20T02:21:41.055Z,97198.00
2022-11-20T02:24:45.063Z,97194.13
2022-11-20T02:27:48.922Z,97198.56
2022-11-20T02:30:52.798Z,97197.56
2022-11-20T02:33:56.611Z,97200.66
2022-11-20T02:37:00.756Z,97203.91
2022-11-20T02:40:04.889Z,97203.13
2022-11-20T02:43:08.807Z,97204.31
2022-11-20T02:46:13.119Z,97204.84
2022-11-20T02:49:16.839Z,97205.34
2022-11-20T02:52:20.713Z,97200.97
2022-11-20T02:55:24.716Z,97196.53
2022-11-20T02:58:28.774Z,97202.94
2022-11-20T03:01:32.799Z,97200.56
2022-11-20T03:04:37.152Z,97199.94
2022-11-20T03:07:41.197Z,97205.78
2022-11-20T03:10:44.988Z,97197.53
2022-11-20T03:13:50.711Z,97200.44
2022-11-20T03:16:54.636Z,97207.72
2022-11-20T03:19:58.825Z,97208.63
2022-11-20T03:23:03.005Z,97214.91
2022-11-20T03:26:07.108Z,97210.25
2022-11-20T03:29:10.919Z,97216.94
2022-11-20T03:32:15.201Z,97212.75
2022-11-20T03:35:19.362Z,97215.84
2022-11-20T03:38:23.429Z,97219.72
2022-11-20T03:41:27.010Z,97224.06
2022-11-20T03:44:30.941Z,97220.88
2022-11-20T03:47:34.985Z,97222.81
2022-11-20T03:50:40.029Z,97220.34
2022-11-20T03:53:43.808Z,97231.00
2022-11-20T03:56:47.542Z,97216.41
2022-11-20T03:59:51.491Z,97221.84
2022-11-20T04:02:55.388Z,97226.59
2022-11-20T04:05:59.919Z,97224.28
2022-11-20T04:09:03.407Z,97222.47
2022-11-20T04:12:07.172Z,97224.97
2022-11-20T04:15:11.248Z,97225.31
2022-11-20T04:18:15.454Z,97224.88
2022-11-20T04:21:19.892Z,97228.88
2022-11-20T04:24:24.064Z,97228.06
2022-11-20T04:27:28.288Z,97234.34
2022-11-20T04:30:32.602Z,97235.75
2022-11-20T04:33:36.545Z,97228.56
2022-11-20T04:36:40.594Z,97236.75
2022-11-20T04:39:44.899Z,97219.91
2022-11-20T04:42:49.114Z,97234.06
2022-11-20T04:45:53.438Z,97228.47
2022-11-20T04:48:57.722Z,97230.41
2022-11-20T04:52:02.003Z,97226.84
2022-11-20T04:55:06.208Z,97229.19
2022-11-20T04:58:10.545Z,97225.31
2022-11-20T05:01:15.097Z,97219.38
2022-11-20T05:04:19.205Z,97213.34
2022-11-20T05:07:23.355Z,97211.59
2022-11-20T05:10:27.584Z,97212.44
2022-11-20T05:13:31.625Z,97219.13
2022-11-20T05:16:35.650Z,97217.81
2022-11-20T05:19:39.491Z,97224.97
2022-11-20T05:22:43.651Z,97233.38
2022-11-20T05:25:47.748Z,97235.13
2022-11-20T05:28:51.756Z,97224.19
2022-11-20T05:31:55.879Z,97228.53
2022-11-20T05:34:59.870Z,97228.53
2022-11-20T05:38:03.901Z,97225.81
2022-11-20T05:41:08.205Z,97232.78
2022-11-20T05:44:12.156Z,97237.63
2022-11-20T05:47:16.122Z,97243.78
2022-11-20T05:50:19.954Z,97244.94
2022-11-20T05:53:27.457Z,97246.56
2022-11-20T05:56:31.610Z,97247.38
2022-11-20T05:59:35.602Z,97244.81
2022-11-20T06:02:39.403Z,97244.59
2022-11-20T06:05:43.202Z,97236.91
2022-11-20T06:08:47.191Z,97242.53
2022-11-20T06:11:51.461Z,97243.44
2022-11-20T06:14:55.643Z,97250.38
2022-11-20T06:17:59.644Z,97252.44
2022-11-20T06:21:03.458Z,97259.09
2022-11-20T06:24:07.431Z,97256.72
2022-11-20T06:27:11.508Z,97257.09
2022-11-20T06:30:15.387Z,97255.28
2022-11-20T06:33:19.248Z,97250.09
2022-11-20T06:36:23.317Z,97253.13
2022-11-20T06:39:27.517Z,97253.94
2022-11-20T06:42:31.755Z,97244.97
2022-11-20T06:45:35.871Z,97255.38
2022-11-20T06:48:39.762Z,97261.69
2022-11-20T06:51:43.780Z,97259.56
2022-11-20T06:54:47.629Z,97258.44
2022-11-20T06:57:55.752Z,97255.69
2022-11-20T07:01:01.439Z,97261.69
2022-11-20T07:04:05.528Z,97268.19
2022-11-20T07:07:09.367Z,97269.03
2022-11-20T07:10:13.535Z,97264.22
2022-11-20T07:13:17.478Z,97269.03
2022-11-20T07:16:21.706Z,97267.25
2022-11-20T07:19:25.811Z,97272.91
2022-11-20T07:22:29.611Z,97282.31
2022-11-20T07:25:34.937Z,97278.38
2022-11-20T07:28:39.475Z,97282.94
2022-11-20T07:31:43.148Z,97286.75
2022-11-20T07:34:46.905Z,97292.16
2022-11-20T07:37:51.343Z,97279.06
2022-11-20T07:40:55.263Z,97290.38
2022-11-20T07:43:59.331Z,97290.59
2022-11-20T07:47:05.672Z,97287.59
2022-11-20T07:50:09.513Z,97296.31
2022-11-20T07:53:13.623Z,97284.88
2022-11-20T07:56:17.308Z,97291.38
2022-11-20T07:59:21.999Z,97284.63
2022-11-20T08:02:26.695Z,97287.06
2022-11-20T08:05:30.470Z,97295.38
2022-11-20T08:08:36.906Z,97294.94
2022-11-20T08:11:47.995Z,97294.75
2022-11-20T08:14:53.404Z,97295.72
2022-11-20T08:18:28.928Z,97300.41
2022-11-20T08:24:16.970Z,97305.50
2022-11-20T08:30:56.094Z,97306.47
2022-11-20T08:34:24.942Z,97312.06
2022-11-20T08:37:28.913Z,97314.69
2022-11-20T08:40:33.082Z,97316.19
2022-11-20T08:43:37.132Z,97318.84
2022-11-20T08:46:41.135Z,97306.03
2022-11-20T08:53:19.909Z,97314.72
2022-11-20T08:56:24.380Z,97313.56
2022-11-20T09:00:03.732Z,97321.44
2022-11-20T09:02:59.217Z,97323.59
2022-11-20T09:06:03.360Z,97321.59
2022-11-20T09:09:10.680Z,97329.81
2022-11-20T09:15:45.333Z,97323.63
2022-11-20T09:19:28.600Z,97324.44
2022-11-20T09:27:50.360Z,97332.75
2022-11-20T09:30:55.491Z,97332.50
2022-11-20T09:33:59.783Z,97332.19
2022-11-20T09:37:07.584Z,97328.09
2022-11-20T09:40:18.745Z,97324.66
2022-11-20T09:43:24.990Z,97328.69
2022-11-20T09:46:29.485Z,97331.72
2022-11-20T09:49:33.729Z,97327.19
2022-11-20T09:56:18.244Z,97331.41
2022-11-20T10:02:56.387Z,97325.34
2022-11-20T10:06:00.861Z,97321.34
2022-11-20T10:12:16.711Z,97328.41
2022-11-20T10:15:24.032Z,97328.88
2022-11-20T10:18:28.562Z,97325.56
2022-11-20T10:21:33.142Z,97323.81
2022-11-20T10:24:37.010Z,97329.38
2022-11-20T10:27:42.368Z,97317.13
2022-11-20T10:30:46.457Z,97314.97
2022-11-20T10:34:11.097Z,97321.44
2022-11-20T10:37:14.834Z,97318.19
2022-11-20T10:40:19.352Z,97324.75
2022-11-20T10:46:52.168Z,97323.03
2022-11-20T10:49:57.588Z,97318.91
2022-11-20T10:53:02.023Z,97315.13
2022-11-20T10:56:06.511Z,97313.06
2022-11-20T10:59:20.732Z,97310.63
2022-11-20T11:02:25.880Z,97309.59
2022-11-20T11:05:40.210Z,97312.38
2022-11-20T11:36:57.978Z,97248.78
2022-11-20T11:40:23.516Z,97229.25
2022-11-20T11:43:36.725Z,97219.63
2022-11-20T11:46:42.426Z,97210.66
2022-11-20T11:49:49.398Z,97214.09
2022-11-20T12:06:51.602Z,97171.66
2022-11-20T12:10:11.488Z,97166.34
2022-11-20T12:13:22.633Z,97168.75
2022-11-20T12:16:27.713Z,97159.25
2022-11-20T12:19:34.613Z,97145.53
2022-11-20T12:26:08.990Z,97140.91
2022-11-20T12:29:15.132Z,97156.16
2022-11-20T12:35:49.592Z,97165.09
2022-11-20T12:42:29.177Z,97139.88
2022-11-20T12:45:34.560Z,97123.50
2022-11-20T12:48:45.931Z,97136.28
2022-11-20T12:51:50.806Z,97129.25
2022-11-20T12:54:55.061Z,97131.38
2022-11-20T12:57:59.107Z,97134.75
2022-11-20T13:01:04.239Z,97139.56
2022-11-20T13:04:10.536Z,97137.72
2022-11-20T13:07:15.902Z,97143.06
2022-11-20T13:10:25.975Z,97147.84
2022-11-20T13:13:30.221Z,97152.75
2022-11-20T13:16:34.870Z,97142.47
2022-11-20T13:19:39.440Z,97137.03
2022-11-20T13:26:21.604Z,97137.97
2022-11-20T13:33:06.722Z,97127.38
2022-11-20T14:00:32.730Z,97087.94
2022-11-20T14:04:07.110Z,97098.19
2022-11-20T14:58:33.540Z,97038.22
2022-11-20T15:33:51.359Z,97018.81
2022-11-20T15:47:35.206Z,97011.75
2022-11-20T15:55:16.254Z,97007.50
2022-11-20T16:19:44.638Z,97050.56
2022-11-20T16:22:49.768Z,97052.84
2022-11-20T16:26:04.435Z,97056.59
2022-11-20T16:33:27.474Z,97044.91
2022-11-20T16:36:12.529Z,97038.31
2022-11-20T16:39:24.431Z,97040.53
2022-11-20T16:49:13.701Z,97065.09
2022-11-20T16:52:18.336Z,97072.53
2022-11-20T16:55:48.658Z,97061.78
2022-11-20T16:58:56.760Z,97063.75
2022-11-20T17:02:31.541Z,97068.63
2022-11-20T17:05:37.947Z,97083.22
2022-11-20T17:08:46.949Z,97094.84
2022-11-20T17:11:54.497Z,97102.56
2022-11-20T17:14:58.581Z,97114.50
2022-11-20T17:18:03.699Z,97119.09
2022-11-20T17:21:07.912Z,97123.28
2022-11-20T17:24:13.275Z,97127.97
2022-11-20T17:27:17.635Z,97137.31
2022-11-20T17:30:24.226Z,97137.81
2022-11-20T17:33:28.094Z,97144.50
2022-11-20T17:36:31.905Z,97137.16
2022-11-20T17:39:37.415Z,97133.88
2022-11-20T17:42:41.423Z,97136.69
2022-11-20T17:45:45.398Z,97128.19
2022-11-20T17:48:49.329Z,97130.66
2022-11-20T17:51:56.633Z,97142.09
2022-11-20T17:55:00.621Z,97158.63
2022-11-20T17:58:04.392Z,97168.28
2022-11-20T18:01:10.439Z,97173.66
2022-11-20T18:04:14.915Z,97169.41
2022-11-20T18:07:18.785Z,97178.06
2022-11-20T18:10:22.579Z,97198.03
2022-11-20T18:13:27.699Z,97191.88
2022-11-20T18:16:31.713Z,97222.34
2022-11-20T18:19:37.618Z,97213.31
2022-11-20T18:22:44.866Z,97213.84
2022-11-20T18:25:48.955Z,97211.94
2022-11-20T18:28:52.737Z,97206.72
2022-11-20T18:31:56.712Z,97207.69
2022-11-20T18:35:03.436Z,97206.22
2022-11-20T18:38:07.514Z,97207.19
2022-11-20T18:41:11.584Z,97206.72
2022-11-20T18:44:15.484Z,97209.69
2022-11-20T18:47:20.833Z,97213.88
2022-11-20T18:50:24.785Z,97200.78
2022-11-20T18:53:28.931Z,97189.56
2022-11-20T18:56:32.624Z,97199.06
2022-11-20T18:59:36.554Z,97195.72
2022-11-20T19:02:43.175Z,97190.09
2022-11-20T19:05:48.542Z,97205.09
2022-11-20T19:08:52.780Z,97203.84
2022-11-20T19:11:56.768Z,97208.66
2022-11-20T19:15:00.975Z,97194.00
2022-11-20T19:18:04.715Z,97203.69
2022-11-20T19:21:08.699Z,97200.84
2022-11-20T19:24:12.818Z,97199.72
2022-11-20T19:27:16.946Z,97201.25
2022-11-20T19:30:22.717Z,97211.63
2022-11-20T19:33:26.999Z,97209.47
2022-11-20T19:36:31.260Z,97203.53
2022-11-20T19:39:35.444Z,97218.69
2022-11-20T19:42:39.418Z,97228.06
2022-11-20T19:48:34.294Z,97238.53
2022-11-20T19:58:06.829Z,97247.47
2022-11-20T20:01:11.383Z,97241.00
2022-11-20T20:04:15.286Z,97248.25
2022-11-20T20:07:25.312Z,97258.97
2022-11-20T20:10:33.025Z,97254.88
2022-11-20T20:16:54.907Z,97264.47
2022-11-20T20:19:58.867Z,97267.97
2022-11-20T20:23:03.013Z,97278.34
2022-11-20T20:29:36.036Z,97294.25
2022-11-20T20:32:40.737Z,97299.06
2022-11-20T20:35:47.026Z,97309.69
2022-11-20T20:38:50.999Z,97315.31
2022-11-20T20:41:54.886Z,97307.00
2022-11-20T20:45:01.090Z,97314.13
2022-11-20T20:48:05.541Z,97326.63
2022-11-20T20:51:09.915Z,97327.91
2022-11-20T20:54:14.524Z,97335.78
2022-11-20T20:57:23.724Z,97354.16
2022-11-20T21:03:49.466Z,97354.16
2022-11-20T21:06:54.185Z,97367.91
2022-11-20T21:13:15.166Z,97357.56
2022-11-20T21:24:55.342Z,97351.22
2022-11-20T21:48:58.540Z,97367.19
2022-11-20T22:01:55.129Z,97339.63
2022-11-20T22:05:05.615Z,97348.84
2022-11-20T22:08:09.498Z,97341.75
2022-11-20T22:11:14.799Z,97341.63
2022-11-20T22:39:27.584Z,97342.47
2022-11-20T22:42:35.173Z,97328.81
2022-11-20T22:45:40.413Z,97331.84
2022-11-20T22:55:48.727Z,97340.66
2022-11-20T23:05:54.195Z,97325.16
2022-11-20T23:08:55.973Z,97332.47
2022-11-20T23:12:00.551Z,97327.47
2022-11-20T23:18:23.912Z,97335.84
